sensor_id;sensor_type;location;lat;lon;timestamp;temperature;humidity
15630;DHT22;7914;50.842;0.166;2023-03-08T11:25:58;22.20;51.30
15630;DHT22;7914;50.842;0.166;2023-03-08T11:31:34;20.70;53.50
15630;DHT22;7914;50.842;0.166;2023-03-08T11:34:20;20.10;54.60
15630;DHT22;7914;50.842;0.166;2023-03-08T11:39:36;20.00;54.60
15630;DHT22;7914;50.842;0.166;2023-03-08T11:52:18;20.00;53.80
15630;DHT22;7914;50.842;0.166;2023-03-08T11:57:29;19.50;56.20
15630;DHT22;7914;50.842;0.166;2023-03-08T12:00:04;19.40;56.60
15630;DHT22;7914;50.842;0.166;2023-03-08T12:02:41;19.60;56.40
15630;DHT22;7914;50.842;0.166;2023-03-08T12:05:24;19.80;60.80
15630;DHT22;7914;50.842;0.166;2023-03-08T12:08:20;20.20;56.30
15630;DHT22;7914;50.842;0.166;2023-03-08T13:43:21;17.00;86.70
15630;DHT22;7914;50.842;0.166;2023-03-08T13:45:50;17.90;77.40
15630;DHT22;7914;50.842;0.166;2023-03-08T13:48:20;18.70;69.20
15630;DHT22;7914;50.842;0.166;2023-03-08T13:56:02;8.70;76.10
15630;DHT22;7914;50.842;0.166;2023-03-08T13:58:43;5.70;91.70
15630;DHT22;7914;50.842;0.166;2023-03-08T14:01:13;5.30;98.20
15630;DHT22;7914;50.842;0.166;2023-03-08T14:03:42;4.90;100.00
15630;DHT22;7914;50.842;0.166;2023-03-08T14:06:22;4.70;100.00
15630;DHT22;7914;50.842;0.166;2023-03-08T14:08:49;4.70;100.00
15630;DHT22;7914;50.842;0.166;2023-03-08T14:11:21;4.50;100.00
15630;DHT22;7914;50.842;0.166;2023-03-08T14:13:53;4.50;100.00
15630;DHT22;7914;50.842;0.166;2023-03-08T14:16:37;4.50;100.00
15630;DHT22;7914;50.842;0.166;2023-03-08T14:21:37;4.50;100.00
15630;DHT22;7914;50.842;0.166;2023-03-08T14:24:04;4.50;100.00
15630;DHT22;7914;50.842;0.166;2023-03-08T14:26:38;4.50;100.00
15630;DHT22;7914;50.842;0.166;2023-03-08T14:29:20;4.50;100.00
15630;DHT22;7914;50.842;0.166;2023-03-08T14:32:19;4.60;100.00
15630;DHT22;7914;50.842;0.166;2023-03-08T14:34:48;4.60;100.00
15630;DHT22;7914;50.842;0.166;2023-03-08T14:37:25;4.60;100.00
15630;DHT22;7914;50.842;0.166;2023-03-08T14:39:54;4.60;100.00
15630;DHT22;7914;50.842;0.166;2023-03-08T14:42:26;4.50;100.00
15630;DHT22;7914;50.842;0.166;2023-03-08T14:45:04;4.60;100.00
15630;DHT22;7914;50.842;0.166;2023-03-08T14:47:33;4.50;100.00
15630;DHT22;7914;50.842;0.166;2023-03-08T14:50:14;4.50;100.00
15630;DHT22;7914;50.842;0.166;2023-03-08T14:52:48;4.50;100.00
15630;DHT22;7914;50.842;0.166;2023-03-08T14:55:21;4.60;100.00
15630;DHT22;7914;50.842;0.166;2023-03-08T14:57:49;4.80;100.00
15630;DHT22;7914;50.842;0.166;2023-03-08T15:00:15;4.80;100.00
15630;DHT22;7914;50.842;0.166;2023-03-08T15:02:42;4.80;100.00
15630;DHT22;7914;50.842;0.166;2023-03-08T15:05:13;4.80;100.00
15630;DHT22;7914;50.842;0.166;2023-03-08T15:07:40;4.80;100.00
15630;DHT22;7914;50.842;0.166;2023-03-08T15:10:26;4.90;100.00
15630;DHT22;7914;50.842;0.166;2023-03-08T15:12:54;4.80;100.00
15630;DHT22;7914;50.842;0.166;2023-03-08T15:15:19;4.80;100.00
15630;DHT22;7914;50.842;0.166;2023-03-08T15:17:47;4.80;100.00
15630;DHT22;7914;50.842;0.166;2023-03-08T15:20:14;4.60;100.00
15630;DHT22;7914;50.842;0.166;2023-03-08T15:22:47;4.60;100.00
15630;DHT22;7914;50.842;0.166;2023-03-08T15:25:22;4.70;100.00
15630;DHT22;7914;50.842;0.166;2023-03-08T15:27:49;4.60;100.00
15630;DHT22;7914;50.842;0.166;2023-03-08T15:30:22;4.70;100.00
15630;DHT22;7914;50.842;0.166;2023-03-08T15:32:48;4.70;100.00
15630;DHT22;7914;50.842;0.166;2023-03-08T15:35:14;4.70;100.00
15630;DHT22;7914;50.842;0.166;2023-03-08T15:37:40;4.70;100.00
15630;DHT22;7914;50.842;0.166;2023-03-08T15:40:11;4.60;100.00
15630;DHT22;7914;50.842;0.166;2023-03-08T15:42:37;4.50;100.00
15630;DHT22;7914;50.842;0.166;2023-03-08T15:45:02;4.60;100.00
15630;DHT22;7914;50.842;0.166;2023-03-08T15:47:28;4.50;100.00
15630;DHT22;7914;50.842;0.166;2023-03-08T15:49:54;4.60;100.00
15630;DHT22;7914;50.842;0.166;2023-03-08T15:52:20;4.50;100.00
15630;DHT22;7914;50.842;0.166;2023-03-08T15:54:48;4.50;100.00
15630;DHT22;7914;50.842;0.166;2023-03-08T15:57:18;4.40;100.00
15630;DHT22;7914;50.842;0.166;2023-03-08T15:59:43;4.30;100.00
15630;DHT22;7914;50.842;0.166;2023-03-08T16:02:14;4.40;100.00
15630;DHT22;7914;50.842;0.166;2023-03-08T16:04:41;4.50;100.00
15630;DHT22;7914;50.842;0.166;2023-03-08T16:07:19;4.40;100.00
15630;DHT22;7914;50.842;0.166;2023-03-08T16:09:45;4.40;100.00
15630;DHT22;7914;50.842;0.166;2023-03-08T16:12:13;4.40;100.00
15630;DHT22;7914;50.842;0.166;2023-03-08T16:14:39;4.40;100.00
15630;DHT22;7914;50.842;0.166;2023-03-08T16:17:11;4.30;100.00
15630;DHT22;7914;50.842;0.166;2023-03-08T16:19:36;4.30;100.00
15630;DHT22;7914;50.842;0.166;2023-03-08T16:22:02;4.40;100.00
15630;DHT22;7914;50.842;0.166;2023-03-08T16:24:28;4.20;100.00
15630;DHT22;7914;50.842;0.166;2023-03-08T16:26:54;4.20;100.00
15630;DHT22;7914;50.842;0.166;2023-03-08T16:29:21;4.20;100.00
15630;DHT22;7914;50.842;0.166;2023-03-08T16:31:48;4.20;100.00
15630;DHT22;7914;50.842;0.166;2023-03-08T16:34:14;4.20;100.00
15630;DHT22;7914;50.842;0.166;2023-03-08T16:36:40;4.10;100.00
15630;DHT22;7914;50.842;0.166;2023-03-08T16:39:06;4.20;100.00
15630;DHT22;7914;50.842;0.166;2023-03-08T16:41:36;4.20;100.00
15630;DHT22;7914;50.842;0.166;2023-03-08T16:44:03;4.30;100.00
15630;DHT22;7914;50.842;0.166;2023-03-08T16:46:29;4.30;100.00
15630;DHT22;7914;50.842;0.166;2023-03-08T16:48:55;4.30;100.00
15630;DHT22;7914;50.842;0.166;2023-03-08T16:51:23;4.20;100.00
15630;DHT22;7914;50.842;0.166;2023-03-08T16:53:49;4.20;100.00
15630;DHT22;7914;50.842;0.166;2023-03-08T16:56:24;4.30;100.00
15630;DHT22;7914;50.842;0.166;2023-03-08T16:58:51;4.20;100.00
15630;DHT22;7914;50.842;0.166;2023-03-08T17:01:18;4.20;100.00
15630;DHT22;7914;50.842;0.166;2023-03-08T17:03:44;4.20;100.00
15630;DHT22;7914;50.842;0.166;2023-03-08T17:06:12;4.20;100.00
15630;DHT22;7914;50.842;0.166;2023-03-08T17:08:38;4.10;100.00
15630;DHT22;7914;50.842;0.166;2023-03-08T17:11:04;4.20;100.00
15630;DHT22;7914;50.842;0.166;2023-03-08T17:13:31;4.20;100.00
15630;DHT22;7914;50.842;0.166;2023-03-08T17:15:58;4.10;100.00
15630;DHT22;7914;50.842;0.166;2023-03-08T17:18:24;4.20;100.00
15630;DHT22;7914;50.842;0.166;2023-03-08T17:20:51;4.20;100.00
15630;DHT22;7914;50.842;0.166;2023-03-08T17:23:18;4.30;100.00
15630;DHT22;7914;50.842;0.166;2023-03-08T17:25:44;4.20;100.00
15630;DHT22;7914;50.842;0.166;2023-03-08T17:28:10;4.10;100.00
15630;DHT22;7914;50.842;0.166;2023-03-08T17:30:39;4.10;100.00
15630;DHT22;7914;50.842;0.166;2023-03-08T17:33:06;4.00;100.00
15630;DHT22;7914;50.842;0.166;2023-03-08T17:35:31;4.10;100.00
15630;DHT22;7914;50.842;0.166;2023-03-08T17:37:57;4.10;100.00
15630;DHT22;7914;50.842;0.166;2023-03-08T17:40:23;4.10;100.00
15630;DHT22;7914;50.842;0.166;2023-03-08T17:42:48;4.10;100.00
15630;DHT22;7914;50.842;0.166;2023-03-08T17:45:16;4.10;100.00
15630;DHT22;7914;50.842;0.166;2023-03-08T17:47:42;4.00;100.00
15630;DHT22;7914;50.842;0.166;2023-03-08T17:50:09;4.00;100.00
15630;DHT22;7914;50.842;0.166;2023-03-08T17:52:35;4.00;100.00
15630;DHT22;7914;50.842;0.166;2023-03-08T17:55:01;4.00;100.00
15630;DHT22;7914;50.842;0.166;2023-03-08T17:57:27;4.10;100.00
15630;DHT22;7914;50.842;0.166;2023-03-08T17:59:53;4.10;100.00
15630;DHT22;7914;50.842;0.166;2023-03-08T18:02:19;4.00;100.00
15630;DHT22;7914;50.842;0.166;2023-03-08T18:04:47;4.00;100.00
15630;DHT22;7914;50.842;0.166;2023-03-08T18:07:14;4.10;100.00
15630;DHT22;7914;50.842;0.166;2023-03-08T18:09:40;4.00;100.00
15630;DHT22;7914;50.842;0.166;2023-03-08T18:12:06;4.00;100.00
15630;DHT22;7914;50.842;0.166;2023-03-08T18:14:36;4.00;100.00
15630;DHT22;7914;50.842;0.166;2023-03-08T18:17:03;4.00;100.00
15630;DHT22;7914;50.842;0.166;2023-03-08T18:19:29;4.00;100.00
15630;DHT22;7914;50.842;0.166;2023-03-08T18:21:55;4.00;100.00
15630;DHT22;7914;50.842;0.166;2023-03-08T18:24:23;4.00;100.00
15630;DHT22;7914;50.842;0.166;2023-03-08T18:26:49;4.00;100.00
15630;DHT22;7914;50.842;0.166;2023-03-08T18:29:14;4.00;100.00
15630;DHT22;7914;50.842;0.166;2023-03-08T18:31:40;3.90;100.00
15630;DHT22;7914;50.842;0.166;2023-03-08T18:34:06;4.00;100.00
15630;DHT22;7914;50.842;0.166;2023-03-08T18:36:33;4.00;100.00
15630;DHT22;7914;50.842;0.166;2023-03-08T18:38:58;4.00;100.00
15630;DHT22;7914;50.842;0.166;2023-03-08T18:41:27;4.00;100.00
15630;DHT22;7914;50.842;0.166;2023-03-08T18:43:55;3.90;100.00
15630;DHT22;7914;50.842;0.166;2023-03-08T18:46:22;4.00;100.00
15630;DHT22;7914;50.842;0.166;2023-03-08T18:49:04;3.90;100.00
15630;DHT22;7914;50.842;0.166;2023-03-08T18:51:32;4.00;100.00
15630;DHT22;7914;50.842;0.166;2023-03-08T18:53:59;3.90;100.00
15630;DHT22;7914;50.842;0.166;2023-03-08T18:56:26;3.90;100.00
15630;DHT22;7914;50.842;0.166;2023-03-08T18:58:52;3.90;100.00
15630;DHT22;7914;50.842;0.166;2023-03-08T19:01:19;3.90;100.00
15630;DHT22;7914;50.842;0.166;2023-03-08T19:03:45;3.80;100.00
15630;DHT22;7914;50.842;0.166;2023-03-08T19:06:11;3.90;100.00
15630;DHT22;7914;50.842;0.166;2023-03-08T19:08:38;3.90;100.00
15630;DHT22;7914;50.842;0.166;2023-03-08T19:11:16;3.90;100.00
15630;DHT22;7914;50.842;0.166;2023-03-08T19:13:42;3.90;100.00
15630;DHT22;7914;50.842;0.166;2023-03-08T19:16:26;3.90;100.00
15630;DHT22;7914;50.842;0.166;2023-03-08T19:18:58;3.90;100.00
15630;DHT22;7914;50.842;0.166;2023-03-08T19:21:28;4.00;100.00
15630;DHT22;7914;50.842;0.166;2023-03-08T19:23:55;4.00;100.00
15630;DHT22;7914;50.842;0.166;2023-03-08T19:26:23;3.90;100.00
15630;DHT22;7914;50.842;0.166;2023-03-08T19:29:16;4.00;100.00
15630;DHT22;7914;50.842;0.166;2023-03-08T19:31:50;4.10;100.00
15630;DHT22;7914;50.842;0.166;2023-03-08T19:34:18;4.00;100.00
15630;DHT22;7914;50.842;0.166;2023-03-08T19:36:45;4.00;100.00
15630;DHT22;7914;50.842;0.166;2023-03-08T19:39:17;4.10;100.00
15630;DHT22;7914;50.842;0.166;2023-03-08T19:41:46;4.00;100.00
15630;DHT22;7914;50.842;0.166;2023-03-08T19:44:12;3.90;100.00
15630;DHT22;7914;50.842;0.166;2023-03-08T19:46:39;3.90;100.00
15630;DHT22;7914;50.842;0.166;2023-03-08T19:49:06;4.00;100.00
15630;DHT22;7914;50.842;0.166;2023-03-08T19:51:33;4.00;100.00
15630;DHT22;7914;50.842;0.166;2023-03-08T19:53:59;4.00;100.00
15630;DHT22;7914;50.842;0.166;2023-03-08T19:56:25;4.00;100.00
15630;DHT22;7914;50.842;0.166;2023-03-08T19:58:53;4.10;100.00
15630;DHT22;7914;50.842;0.166;2023-03-08T20:01:20;4.10;100.00
15630;DHT22;7914;50.842;0.166;2023-03-08T20:03:46;4.00;100.00
15630;DHT22;7914;50.842;0.166;2023-03-08T20:06:20;4.00;100.00
15630;DHT22;7914;50.842;0.166;2023-03-08T20:08:46;4.10;100.00
15630;DHT22;7914;50.842;0.166;2023-03-08T20:11:12;4.10;100.00
15630;DHT22;7914;50.842;0.166;2023-03-08T20:13:38;4.10;100.00
15630;DHT22;7914;50.842;0.166;2023-03-08T20:16:04;4.10;100.00
15630;DHT22;7914;50.842;0.166;2023-03-08T20:18:30;4.10;100.00
15630;DHT22;7914;50.842;0.166;2023-03-08T20:20:55;4.10;100.00
15630;DHT22;7914;50.842;0.166;2023-03-08T20:23:24;4.00;100.00
15630;DHT22;7914;50.842;0.166;2023-03-08T20:25:49;4.00;100.00
15630;DHT22;7914;50.842;0.166;2023-03-08T20:28:15;4.10;100.00
15630;DHT22;7914;50.842;0.166;2023-03-08T20:30:42;4.10;100.00
15630;DHT22;7914;50.842;0.166;2023-03-08T20:33:09;4.10;100.00
15630;DHT22;7914;50.842;0.166;2023-03-08T20:35:35;4.10;100.00
15630;DHT22;7914;50.842;0.166;2023-03-08T20:38:00;4.10;100.00
15630;DHT22;7914;50.842;0.166;2023-03-08T20:40:26;4.20;100.00
15630;DHT22;7914;50.842;0.166;2023-03-08T20:42:52;4.10;100.00
15630;DHT22;7914;50.842;0.166;2023-03-08T20:45:23;4.00;100.00
15630;DHT22;7914;50.842;0.166;2023-03-08T20:47:50;3.90;100.00
15630;DHT22;7914;50.842;0.166;2023-03-08T20:50:19;3.90;100.00
15630;DHT22;7914;50.842;0.166;2023-03-08T20:52:46;3.90;100.00
15630;DHT22;7914;50.842;0.166;2023-03-08T20:55:12;4.00;100.00
15630;DHT22;7914;50.842;0.166;2023-03-08T20:57:37;4.00;100.00
15630;DHT22;7914;50.842;0.166;2023-03-08T21:00:03;3.90;100.00
15630;DHT22;7914;50.842;0.166;2023-03-08T21:02:29;4.10;100.00
15630;DHT22;7914;50.842;0.166;2023-03-08T21:04:58;4.00;100.00
15630;DHT22;7914;50.842;0.166;2023-03-08T21:07:25;4.20;100.00
15630;DHT22;7914;50.842;0.166;2023-03-08T21:09:51;4.30;100.00
15630;DHT22;7914;50.842;0.166;2023-03-08T21:12:17;4.30;100.00
15630;DHT22;7914;50.842;0.166;2023-03-08T21:14:43;4.20;100.00
15630;DHT22;7914;50.842;0.166;2023-03-08T21:17:08;4.20;100.00
15630;DHT22;7914;50.842;0.166;2023-03-08T21:19:34;4.10;100.00
15630;DHT22;7914;50.842;0.166;2023-03-08T21:22:00;4.20;100.00
15630;DHT22;7914;50.842;0.166;2023-03-08T21:24:28;4.10;100.00
15630;DHT22;7914;50.842;0.166;2023-03-08T21:26:54;4.20;100.00
15630;DHT22;7914;50.842;0.166;2023-03-08T21:29:20;4.20;100.00
15630;DHT22;7914;50.842;0.166;2023-03-08T21:31:51;4.10;100.00
15630;DHT22;7914;50.842;0.166;2023-03-08T21:34:19;4.10;100.00
15630;DHT22;7914;50.842;0.166;2023-03-08T21:36:45;4.20;100.00
15630;DHT22;7914;50.842;0.166;2023-03-08T21:39:11;4.20;100.00
15630;DHT22;7914;50.842;0.166;2023-03-08T21:41:39;4.20;100.00
15630;DHT22;7914;50.842;0.166;2023-03-08T21:44:08;4.20;100.00
15630;DHT22;7914;50.842;0.166;2023-03-08T21:46:38;4.20;100.00
15630;DHT22;7914;50.842;0.166;2023-03-08T21:49:05;4.20;100.00
15630;DHT22;7914;50.842;0.166;2023-03-08T21:51:32;4.20;100.00
15630;DHT22;7914;50.842;0.166;2023-03-08T21:53:57;4.20;100.00
15630;DHT22;7914;50.842;0.166;2023-03-08T21:56:23;4.10;100.00
15630;DHT22;7914;50.842;0.166;2023-03-08T21:58:49;4.20;100.00
15630;DHT22;7914;50.842;0.166;2023-03-08T22:01:26;4.10;100.00
15630;DHT22;7914;50.842;0.166;2023-03-08T22:03:53;4.10;100.00
15630;DHT22;7914;50.842;0.166;2023-03-08T22:06:19;4.20;100.00
15630;DHT22;7914;50.842;0.166;2023-03-08T22:08:46;4.20;100.00
15630;DHT22;7914;50.842;0.166;2023-03-08T22:11:12;4.10;100.00
15630;DHT22;7914;50.842;0.166;2023-03-08T22:13:38;4.10;100.00
15630;DHT22;7914;50.842;0.166;2023-03-08T22:16:04;4.00;100.00
15630;DHT22;7914;50.842;0.166;2023-03-08T22:18:30;4.10;100.00
15630;DHT22;7914;50.842;0.166;2023-03-08T22:20:57;4.10;100.00
15630;DHT22;7914;50.842;0.166;2023-03-08T22:23:22;4.10;100.00
15630;DHT22;7914;50.842;0.166;2023-03-08T22:25:51;4.10;100.00
15630;DHT22;7914;50.842;0.166;2023-03-08T22:28:17;4.00;100.00
15630;DHT22;7914;50.842;0.166;2023-03-08T22:30:42;4.00;100.00
15630;DHT22;7914;50.842;0.166;2023-03-08T22:33:08;4.00;100.00
15630;DHT22;7914;50.842;0.166;2023-03-08T22:35:35;4.00;100.00
15630;DHT22;7914;50.842;0.166;2023-03-08T22:38:01;4.00;100.00
15630;DHT22;7914;50.842;0.166;2023-03-08T22:40:27;4.10;100.00
15630;DHT22;7914;50.842;0.166;2023-03-08T22:42:52;4.10;100.00
15630;DHT22;7914;50.842;0.166;2023-03-08T22:45:18;4.10;100.00
15630;DHT22;7914;50.842;0.166;2023-03-08T22:47:43;4.00;100.00
15630;DHT22;7914;50.842;0.166;2023-03-08T22:50:10;4.10;100.00
15630;DHT22;7914;50.842;0.166;2023-03-08T22:52:35;4.00;100.00
15630;DHT22;7914;50.842;0.166;2023-03-08T22:55:02;4.00;100.00
15630;DHT22;7914;50.842;0.166;2023-03-08T22:57:27;4.10;100.00
15630;DHT22;7914;50.842;0.166;2023-03-08T22:59:54;4.20;100.00
15630;DHT22;7914;50.842;0.166;2023-03-08T23:02:20;4.20;100.00
15630;DHT22;7914;50.842;0.166;2023-03-08T23:04:46;4.10;100.00
15630;DHT22;7914;50.842;0.166;2023-03-08T23:07:11;4.00;100.00
15630;DHT22;7914;50.842;0.166;2023-03-08T23:09:37;4.10;100.00
15630;DHT22;7914;50.842;0.166;2023-03-08T23:12:03;4.10;100.00
15630;DHT22;7914;50.842;0.166;2023-03-08T23:14:33;4.00;100.00
15630;DHT22;7914;50.842;0.166;2023-03-08T23:16:59;4.00;100.00
15630;DHT22;7914;50.842;0.166;2023-03-08T23:19:26;4.10;100.00
15630;DHT22;7914;50.842;0.166;2023-03-08T23:21:51;4.10;100.00
15630;DHT22;7914;50.842;0.166;2023-03-08T23:24:17;4.20;100.00
15630;DHT22;7914;50.842;0.166;2023-03-08T23:26:43;4.20;100.00
15630;DHT22;7914;50.842;0.166;2023-03-08T23:29:12;4.20;100.00
15630;DHT22;7914;50.842;0.166;2023-03-08T23:31:42;4.10;100.00
15630;DHT22;7914;50.842;0.166;2023-03-08T23:34:09;4.20;100.00
15630;DHT22;7914;50.842;0.166;2023-03-08T23:36:34;4.20;100.00
15630;DHT22;7914;50.842;0.166;2023-03-08T23:39:00;4.20;100.00
15630;DHT22;7914;50.842;0.166;2023-03-08T23:41:29;4.10;100.00
15630;DHT22;7914;50.842;0.166;2023-03-08T23:43:57;4.00;100.00
15630;DHT22;7914;50.842;0.166;2023-03-08T23:46:23;4.00;100.00
15630;DHT22;7914;50.842;0.166;2023-03-08T23:48:50;4.00;100.00
15630;DHT22;7914;50.842;0.166;2023-03-08T23:51:18;4.00;100.00
15630;DHT22;7914;50.842;0.166;2023-03-08T23:53:46;3.90;100.00
15630;DHT22;7914;50.842;0.166;2023-03-08T23:56:27;4.00;100.00
15630;DHT22;7914;50.842;0.166;2023-03-08T23:58:56;4.00;100.00
